Kezdőlap
METAR-TAF:

METAR-TAF

Repülőterek :

Jackson Municipal Airport

Jackson, Minnesota, Amerikai Egyesült Államok

földrajzi szélesség: 43-39N, földrajzi hosszúság: 094-59W, magasság: 441 m

Jelenlegi meteorológiai megfigyelések

A jelentés 1 órával és 20 perccel ezelõtt készült, 14:55 UTC
Déli szél 3 kt
Hőmérséklet -18°C
Páratartalom 84%
Légköri nyomás 1018 hPa
Látótávolság: 16.1 km
Szórványos felhőzet 12000 lábon

METAR: KMJQ 151455Z AUTO 18003KT 10SM SCT120 M18/M20 A3005 RMK AO2

Idő: 10:15 (16:15 UTC)


TAF: hiányzik

Meteorológiai megfigyelések és előrejelzések több, mint 4000 repülőtéren (METAR és TAF jelentéseket).

A térképen piros és sárga pontok jelzik az elérhető meteorológiai állomásokat.

Mozgassa az egeret a pont fölött, hogy megjelenjen az állomás neve.

Azután kattintson az időjárási megfigyelések és előrejelzések megtekintéséhez.

A térkép megváltoztatása: kattintson a fekete keresztel jelölt zöld gombra ráközelítéshez, a vonallal jelölt zöld gombra távolításhoz, vagy a zöld nyilakra a szomszédos térképek eléréséhez.


METAR-TAF: